createdAt,value
2022-11-07T00:00:50.149Z,88
2022-11-07T00:01:52.964Z,83
2022-11-07T00:02:57.295Z,81
2022-11-07T00:04:02.335Z,83
2022-11-07T00:05:06.369Z,88
2022-11-07T00:06:10.456Z,90
2022-11-07T00:07:15.502Z,81
2022-11-07T00:08:19.642Z,87
2022-11-07T00:09:24.227Z,83
2022-11-07T00:10:28.798Z,81
2022-11-07T00:11:32.906Z,82
2022-11-07T00:12:37.589Z,79
2022-11-07T00:13:41.985Z,79
2022-11-07T00:14:46.051Z,86
2022-11-07T00:15:50.296Z,87
2022-11-07T00:17:00.136Z,89
2022-11-07T00:18:04.632Z,88
2022-11-07T00:19:09.373Z,93
2022-11-07T00:20:13.645Z,89
2022-11-07T00:21:18.225Z,94
2022-11-07T00:22:22.376Z,93
2022-11-07T00:23:26.432Z,91
2022-11-07T00:24:30.973Z,87
2022-11-07T00:25:35.005Z,94
2022-11-07T00:26:39.332Z,87
2022-11-07T00:27:43.880Z,89
2022-11-07T00:28:48.609Z,90
2022-11-07T00:29:52.944Z,94
2022-11-07T00:30:57.077Z,86
2022-11-07T00:32:01.305Z,80
2022-11-07T00:33:05.674Z,86
2022-11-07T00:34:09.711Z,85
2022-11-07T00:35:14.625Z,87
2022-11-07T00:36:18.953Z,83
2022-11-07T00:37:23.640Z,88
2022-11-07T00:38:28.101Z,81
2022-11-07T00:39:32.592Z,83
2022-11-07T00:40:36.788Z,84
2022-11-07T00:41:40.821Z,75
2022-11-07T00:42:45.462Z,72
2022-11-07T00:43:50.253Z,78
2022-11-07T00:44:54.796Z,72
2022-11-07T00:45:59.231Z,73
2022-11-07T00:47:03.324Z,75
2022-11-07T00:48:07.908Z,75
2022-11-07T00:49:12.434Z,68
2022-11-07T00:50:17.136Z,71
2022-11-07T00:51:21.673Z,71
2022-11-07T00:52:26.237Z,67
2022-11-07T00:53:30.771Z,64
2022-11-07T00:54:34.949Z,62
2022-11-07T00:55:39.520Z,69
2022-11-07T00:56:43.941Z,66
2022-11-07T00:57:48.077Z,60
2022-11-07T00:58:52.133Z,63
2022-11-07T00:59:59.324Z,62
2022-11-07T01:01:03.504Z,61
2022-11-07T01:02:10.875Z,58
2022-11-07T01:03:14.991Z,54
2022-11-07T01:04:24.223Z,57
2022-11-07T01:05:33.488Z,58
2022-11-07T01:06:37.580Z,60
2022-11-07T01:07:42.175Z,59
2022-11-07T01:08:46.673Z,54
2022-11-07T01:09:50.905Z,59
2022-11-07T01:10:55.445Z,54
2022-11-07T01:12:00.108Z,61
2022-11-07T01:13:04.488Z,52
2022-11-07T01:14:08.639Z,54
2022-11-07T01:15:12.769Z,55
2022-11-07T01:16:17.388Z,56
2022-11-07T01:17:22.404Z,50
2022-11-07T01:18:26.899Z,54
2022-11-07T01:19:31.224Z,58
2022-11-07T01:20:35.611Z,50
2022-11-07T01:21:39.791Z,53
2022-11-07T01:22:44.297Z,56
2022-11-07T01:23:48.416Z,49
2022-11-07T01:24:53.071Z,56
2022-11-07T01:25:57.597Z,60
2022-11-07T01:27:08.358Z,53
2022-11-07T01:28:12.487Z,53
2022-11-07T01:29:17.304Z,57
2022-11-07T01:30:21.605Z,55
2022-11-07T01:31:26.547Z,57
2022-11-07T01:32:30.720Z,57
2022-11-07T01:33:35.352Z,54
2022-11-07T01:34:39.921Z,55
2022-11-07T01:35:44.417Z,53
2022-11-07T01:36:48.671Z,53
2022-11-07T01:37:53.148Z,51
2022-11-07T01:38:57.187Z,54
2022-11-07T01:40:01.195Z,50
2022-11-07T01:41:05.863Z,57
2022-11-07T01:42:15.558Z,50
2022-11-07T01:43:20.044Z,48
2022-11-07T01:44:24.228Z,50
2022-11-07T01:45:28.219Z,51
2022-11-07T01:46:32.368Z,53
2022-11-07T01:47:42.050Z,53
2022-11-07T01:48:46.623Z,48
2022-11-07T01:49:50.929Z,47
2022-11-07T01:50:55.326Z,44
2022-11-07T01:51:59.953Z,46
2022-11-07T01:53:10.637Z,45
2022-11-07T01:54:15.373Z,42
2022-11-07T01:55:19.666Z,39
2022-11-07T01:56:26.915Z,40
2022-11-07T01:57:31.482Z,45
2022-11-07T01:58:44.121Z,49
2022-11-07T01:59:48.276Z,47
2022-11-07T02:00:52.664Z,45
2022-11-07T02:01:57.059Z,41
2022-11-07T02:03:01.662Z,39
2022-11-07T02:04:08.699Z,43
2022-11-07T02:05:13.103Z,41
2022-11-07T02:06:22.358Z,39
2022-11-07T02:07:34.956Z,38
2022-11-07T02:08:39.162Z,39
2022-11-07T02:09:43.320Z,40
2022-11-07T02:10:47.887Z,34
2022-11-07T02:11:52.150Z,36
2022-11-07T02:12:56.702Z,31
2022-11-07T02:14:01.150Z,39
2022-11-07T02:15:05.269Z,37
2022-11-07T02:16:10.085Z,29
2022-11-07T02:17:14.485Z,27
2022-11-07T02:18:18.767Z,29
2022-11-07T02:19:23.393Z,33
2022-11-07T02:20:32.642Z,30
2022-11-07T02:21:36.686Z,29
2022-11-07T02:22:40.778Z,25
2022-11-07T02:23:50.114Z,31
2022-11-07T02:24:54.865Z,28
2022-11-07T02:25:59.238Z,33
2022-11-07T02:27:03.523Z,28
2022-11-07T02:28:08.029Z,35
2022-11-07T02:29:12.515Z,35
2022-11-07T02:30:16.795Z,34
2022-11-07T02:31:26.818Z,28
2022-11-07T02:32:31.162Z,29
2022-11-07T02:33:35.374Z,26
2022-11-07T02:34:39.573Z,38
2022-11-07T02:35:44.209Z,25
2022-11-07T02:36:48.622Z,36
2022-11-07T02:37:52.890Z,33
2022-11-07T02:38:57.646Z,32
2022-11-07T02:40:01.603Z,38
2022-11-07T02:41:06.271Z,28
2022-11-07T02:42:15.805Z,27
2022-11-07T02:43:20.486Z,28
2022-11-07T02:44:24.969Z,36
2022-11-07T02:45:29.489Z,32
2022-11-07T02:46:34.154Z,35
2022-11-07T02:47:38.669Z,28
2022-11-07T02:48:43.220Z,33
2022-11-07T02:49:47.789Z,41
2022-11-07T02:50:51.917Z,30
2022-11-07T02:51:56.509Z,35
2022-11-07T02:53:00.986Z,37
2022-11-07T02:54:05.215Z,35
2022-11-07T02:55:09.677Z,37
2022-11-07T02:56:13.809Z,35
2022-11-07T02:57:18.421Z,31
2022-11-07T02:58:23.241Z,33
2022-11-07T02:59:27.521Z,31
2022-11-07T03:00:31.846Z,33
2022-11-07T03:01:36.397Z,33
2022-11-07T03:02:41.203Z,30
2022-11-07T03:03:48.364Z,32
2022-11-07T03:04:52.808Z,31
2022-11-07T03:05:57.321Z,35
2022-11-07T03:07:01.793Z,25
2022-11-07T03:08:06.675Z,30
2022-11-07T03:09:10.882Z,27
2022-11-07T03:10:15.484Z,30
2022-11-07T03:11:20.274Z,28
2022-11-07T03:12:24.629Z,26
2022-11-07T03:13:28.637Z,31
2022-11-07T03:14:33.154Z,28
2022-11-07T03:15:37.262Z,25
2022-11-07T03:16:41.316Z,29
2022-11-07T03:17:45.496Z,25
2022-11-07T03:18:49.948Z,33
2022-11-07T03:19:54.581Z,28
2022-11-07T03:20:58.828Z,32
2022-11-07T03:22:03.269Z,32
2022-11-07T03:23:07.441Z,35
2022-11-07T03:24:11.527Z,36
2022-11-07T03:25:16.253Z,40
2022-11-07T03:26:20.575Z,37
2022-11-07T03:27:24.794Z,39
2022-11-07T03:28:29.309Z,34
2022-11-07T03:29:33.755Z,38
2022-11-07T03:30:37.972Z,39
2022-11-07T03:31:42.989Z,32
2022-11-07T03:32:47.166Z,37
2022-11-07T03:33:54.390Z,54
2022-11-07T03:34:58.800Z,43
2022-11-07T03:36:02.988Z,45
2022-11-07T03:37:07.421Z,40
2022-11-07T03:38:11.696Z,46
2022-11-07T03:39:17.123Z,57
2022-11-07T03:40:20.829Z,65
2022-11-07T03:41:25.394Z,45
2022-11-07T03:42:29.846Z,72
2022-11-07T03:43:34.072Z,76
2022-11-07T03:44:38.552Z,55
2022-11-07T03:45:42.721Z,61
2022-11-07T03:46:47.380Z,78
2022-11-07T03:47:51.806Z,66
2022-11-07T03:48:55.821Z,77
2022-11-07T03:50:00.118Z,74
2022-11-07T03:51:04.514Z,79
2022-11-07T03:52:08.754Z,71
2022-11-07T03:53:13.617Z,69
2022-11-07T03:54:17.373Z,74
2022-11-07T03:55:21.820Z,67
2022-11-07T03:56:26.405Z,67
2022-11-07T03:57:30.436Z,69
2022-11-07T03:58:34.681Z,72
2022-11-07T03:59:39.229Z,73
2022-11-07T04:00:43.801Z,67
2022-11-07T04:01:48.366Z,73
2022-11-07T04:02:52.495Z,77
2022-11-07T04:03:56.606Z,73
2022-11-07T04:05:00.776Z,69
2022-11-07T04:06:05.220Z,73
2022-11-07T04:07:09.793Z,77
2022-11-07T04:08:14.566Z,72
2022-11-07T04:09:18.934Z,76
2022-11-07T04:10:23.068Z,89
2022-11-07T04:11:27.629Z,78
2022-11-07T04:12:37.443Z,79
2022-11-07T04:13:46.967Z,82
2022-11-07T04:14:56.840Z,83
2022-11-07T04:16:06.275Z,84
2022-11-07T04:17:15.977Z,78
2022-11-07T04:18:19.917Z,80
2022-11-07T04:19:24.546Z,77
2022-11-07T04:20:29.195Z,75
2022-11-07T04:21:33.591Z,77
2022-11-07T04:22:37.960Z,81
2022-11-07T04:23:42.519Z,79
2022-11-07T04:24:47.076Z,82
2022-11-07T04:25:51.947Z,90
2022-11-07T04:27:01.392Z,79
2022-11-07T04:28:11.028Z,87
2022-11-07T04:29:15.626Z,90
2022-11-07T04:30:20.303Z,86
2022-11-07T04:31:24.215Z,83
2022-11-07T04:32:28.364Z,106
2022-11-07T04:33:32.499Z,99
2022-11-07T04:34:37.052Z,95
2022-11-07T04:35:41.420Z,99
2022-11-07T04:36:45.696Z,109
2022-11-07T04:37:50.252Z,104
2022-11-07T04:38:54.433Z,102
2022-11-07T04:39:59.073Z,111
2022-11-07T04:41:03.626Z,107
2022-11-07T04:42:08.129Z,113
2022-11-07T04:43:13.229Z,110
2022-11-07T04:44:17.262Z,101
2022-11-07T04:45:21.824Z,101
2022-11-07T04:46:25.988Z,102
2022-11-07T04:47:30.504Z,122
2022-11-07T04:48:34.592Z,102
2022-11-07T04:49:39.112Z,106
2022-11-07T04:50:43.213Z,109
2022-11-07T04:51:47.832Z,109
2022-11-07T04:52:52.475Z,109
2022-11-07T04:53:57.071Z,100
2022-11-07T04:55:01.620Z,98
2022-11-07T04:56:06.108Z,102
2022-11-07T04:57:10.496Z,102
2022-11-07T04:58:15.303Z,113
2022-11-07T04:59:20.057Z,127
2022-11-07T05:00:24.609Z,106
2022-11-07T05:01:29.010Z,120
2022-11-07T05:02:33.669Z,109
2022-11-07T05:03:41.713Z,126
2022-11-07T05:04:42.372Z,116
2022-11-07T05:05:47.014Z,111
2022-11-07T05:06:51.495Z,119
2022-11-07T05:07:56.139Z,115
2022-11-07T05:09:00.775Z,110
2022-11-07T05:10:10.975Z,123
2022-11-07T05:11:15.982Z,114
2022-11-07T05:12:20.487Z,112
2022-11-07T05:13:24.961Z,125
2022-11-07T05:14:29.195Z,111
2022-11-07T05:15:33.241Z,116
2022-11-07T05:16:37.718Z,106
2022-11-07T05:17:41.890Z,107
2022-11-07T05:18:46.315Z,114
2022-11-07T05:19:50.450Z,108
2022-11-07T05:20:54.902Z,108
2022-11-07T05:21:59.244Z,115
2022-11-07T05:23:08.750Z,128
2022-11-07T05:24:18.459Z,111
2022-11-07T05:25:22.671Z,108
2022-11-07T05:26:27.102Z,115
2022-11-07T05:27:31.121Z,111
2022-11-07T05:28:39.032Z,125
2022-11-07T05:29:39.383Z,121
2022-11-07T05:30:43.995Z,104
2022-11-07T05:31:48.570Z,125
2022-11-07T05:32:52.731Z,121
2022-11-07T05:33:57.219Z,116
2022-11-07T05:35:01.275Z,112
2022-11-07T05:36:05.863Z,114
2022-11-07T05:37:09.874Z,125
2022-11-07T05:38:13.976Z,122
2022-11-07T05:39:18.127Z,121
2022-11-07T05:40:22.794Z,119
2022-11-07T05:41:27.370Z,103
2022-11-07T05:42:31.854Z,119
2022-11-07T05:43:35.978Z,104
2022-11-07T05:44:40.074Z,114
2022-11-07T05:45:44.654Z,125
2022-11-07T05:46:48.850Z,114
2022-11-07T05:47:53.326Z,123
2022-11-07T05:49:00.805Z,117
2022-11-07T05:50:01.554Z,117
2022-11-07T05:51:06.023Z,102
2022-11-07T05:52:10.245Z,110
2022-11-07T05:53:15.148Z,105
2022-11-07T05:54:18.878Z,103
2022-11-07T05:55:23.406Z,98
2022-11-07T05:56:27.405Z,102
2022-11-07T05:57:31.566Z,87
2022-11-07T05:58:35.715Z,104
2022-11-07T05:59:39.794Z,96
2022-11-07T06:00:44.429Z,90
2022-11-07T06:01:51.157Z,79
2022-11-07T06:02:53.174Z,84
2022-11-07T06:03:57.126Z,91
2022-11-07T06:05:01.194Z,67
2022-11-07T06:06:05.908Z,73
2022-11-07T06:07:10.522Z,71
2022-11-07T06:08:14.897Z,70
2022-11-07T06:09:19.087Z,56
2022-11-07T06:10:23.612Z,64
2022-11-07T06:11:28.187Z,56
2022-11-07T06:12:32.198Z,51
2022-11-07T06:13:36.330Z,52
2022-11-07T06:14:40.513Z,54
2022-11-07T06:15:44.914Z,66
2022-11-07T06:16:49.286Z,42
2022-11-07T06:17:53.758Z,32
2022-11-07T06:18:58.318Z,36
2022-11-07T06:20:02.896Z,38
2022-11-07T06:21:07.521Z,37
2022-11-07T06:22:11.979Z,51
2022-11-07T06:23:16.965Z,48
2022-11-07T06:24:20.638Z,49
2022-11-07T06:25:24.714Z,36
2022-11-07T06:26:29.033Z,33
2022-11-07T06:27:33.502Z,31
2022-11-07T06:28:38.049Z,44
2022-11-07T06:29:42.601Z,28
2022-11-07T06:30:46.614Z,35
2022-11-07T06:31:50.780Z,30
2022-11-07T06:32:54.793Z,30
2022-11-07T06:34:04.975Z,40
2022-11-07T06:35:09.011Z,40
2022-11-07T06:36:14.463Z,40
2022-11-07T06:37:18.896Z,28
2022-11-07T06:38:22.835Z,36
2022-11-07T06:39:27.354Z,39
2022-11-07T06:40:31.600Z,25
2022-11-07T06:41:35.643Z,31
2022-11-07T06:42:39.711Z,49
2022-11-07T06:43:44.069Z,47
2022-11-07T06:44:49.201Z,32
2022-11-07T06:45:53.390Z,47
2022-11-07T06:46:57.790Z,54
2022-11-07T06:48:02.039Z,45
2022-11-07T06:49:06.099Z,25
2022-11-07T06:50:10.373Z,34
2022-11-07T06:51:14.787Z,33
2022-11-07T06:52:18.937Z,50
2022-11-07T06:53:23.619Z,33
2022-11-07T06:54:28.134Z,35
2022-11-07T06:55:32.843Z,31
2022-11-07T06:56:43.890Z,39
2022-11-07T06:57:48.431Z,34
2022-11-07T06:58:52.525Z,38
2022-11-07T06:59:56.830Z,46
2022-11-07T07:01:01.219Z,30
2022-11-07T07:02:05.901Z,34
2022-11-07T07:03:10.374Z,52
2022-11-07T07:04:14.330Z,51
2022-11-07T07:05:21.012Z,46
2022-11-07T07:06:22.498Z,26
2022-11-07T07:07:26.520Z,36
2022-11-07T07:08:30.749Z,45
2022-11-07T07:09:35.233Z,40
2022-11-07T07:10:39.768Z,37
2022-11-07T07:11:43.982Z,32
2022-11-07T07:12:48.471Z,25
2022-11-07T07:13:52.609Z,32
2022-11-07T07:14:56.803Z,41
2022-11-07T07:16:01.162Z,46
2022-11-07T07:17:05.947Z,46
2022-11-07T07:18:10.290Z,25
2022-11-07T07:19:14.494Z,33
2022-11-07T07:20:18.811Z,27
2022-11-07T07:21:23.018Z,40
2022-11-07T07:22:27.079Z,30
2022-11-07T07:23:31.162Z,27
2022-11-07T07:24:38.497Z,46
2022-11-07T07:25:43.034Z,34
2022-11-07T07:26:47.134Z,39
2022-11-07T07:27:51.766Z,25
2022-11-07T07:28:56.203Z,29
2022-11-07T07:30:00.310Z,46
2022-11-07T07:31:04.862Z,36
2022-11-07T07:32:14.098Z,30
2022-11-07T07:33:19.129Z,38
2022-11-07T07:34:23.290Z,40
2022-11-07T07:35:27.986Z,34
2022-11-07T07:36:32.406Z,44
2022-11-07T07:37:37.278Z,40
2022-11-07T07:38:41.443Z,34
2022-11-07T07:39:45.750Z,40
2022-11-07T07:40:50.099Z,35
2022-11-07T07:41:54.259Z,36
2022-11-07T07:42:58.250Z,38
2022-11-07T07:44:02.934Z,35
2022-11-07T07:45:07.518Z,39
2022-11-07T07:46:11.966Z,33
2022-11-07T07:47:16.078Z,27
2022-11-07T07:48:20.239Z,42
2022-11-07T07:49:24.742Z,39
2022-11-07T07:50:29.275Z,39
2022-11-07T07:51:33.334Z,37
2022-11-07T07:52:37.421Z,36
2022-11-07T07:53:41.537Z,32
2022-11-07T07:54:45.741Z,31
2022-11-07T07:55:50.397Z,25
2022-11-07T07:56:57.421Z,28
2022-11-07T07:58:01.599Z,25
2022-11-07T07:59:06.009Z,29
2022-11-07T08:00:10.195Z,29
2022-11-07T08:01:14.679Z,33
2022-11-07T08:02:18.646Z,27
2022-11-07T08:03:22.810Z,31
2022-11-07T08:04:27.315Z,34
2022-11-07T08:05:31.397Z,28
2022-11-07T08:06:35.702Z,39
2022-11-07T08:07:40.007Z,32
2022-11-07T08:08:47.254Z,25
2022-11-07T08:09:51.838Z,38
2022-11-07T08:10:56.654Z,34
2022-11-07T08:12:04.127Z,41
2022-11-07T08:13:08.602Z,37
2022-11-07T08:14:13.303Z,30
2022-11-07T08:15:17.712Z,25
2022-11-07T08:16:21.898Z,25
2022-11-07T08:17:26.437Z,51
2022-11-07T08:18:30.845Z,36
2022-11-07T08:19:35.107Z,34
2022-11-07T08:20:39.765Z,30
2022-11-07T08:21:44.430Z,30
2022-11-07T08:22:48.878Z,25
2022-11-07T08:23:52.937Z,25
2022-11-07T08:24:57.469Z,25
2022-11-07T08:26:01.797Z,32
2022-11-07T08:27:06.257Z,43
2022-11-07T08:28:10.691Z,35
2022-11-07T08:29:14.960Z,29
2022-11-07T08:30:19.709Z,29
2022-11-07T08:31:24.058Z,34
2022-11-07T08:32:28.641Z,35
2022-11-07T08:33:33.126Z,40
2022-11-07T08:34:37.234Z,32
2022-11-07T08:35:42.782Z,38
2022-11-07T08:36:45.738Z,35
2022-11-07T08:37:49.890Z,34
2022-11-07T08:38:54.040Z,31
2022-11-07T08:39:58.167Z,30
2022-11-07T08:41:02.249Z,33
2022-11-07T08:42:06.897Z,33
2022-11-07T08:43:11.299Z,30
2022-11-07T08:44:15.667Z,46
2022-11-07T08:45:20.037Z,51
2022-11-07T08:46:24.122Z,25
2022-11-07T08:47:28.127Z,47
2022-11-07T08:48:32.334Z,33
2022-11-07T08:49:36.715Z,36
2022-11-07T08:50:40.786Z,32
2022-11-07T08:51:44.907Z,32
2022-11-07T08:52:49.503Z,26
2022-11-07T08:53:53.616Z,30
2022-11-07T08:54:57.651Z,30
2022-11-07T08:56:01.738Z,27
2022-11-07T08:57:08.945Z,32
2022-11-07T08:58:12.922Z,35
2022-11-07T08:59:17.074Z,39
2022-11-07T09:00:21.074Z,31
2022-11-07T09:01:26.367Z,35
2022-11-07T09:03:18.210Z,31
2022-11-07T09:03:47.721Z,31
2022-11-07T09:04:41.532Z,26
2022-11-07T09:05:45.619Z,26
2022-11-07T09:06:50.080Z,28
2022-11-07T09:07:54.327Z,34
2022-11-07T09:08:58.408Z,31
2022-11-07T09:10:03.058Z,25
2022-11-07T09:11:07.618Z,32
2022-11-07T09:12:12.089Z,26
2022-11-07T09:13:16.452Z,27
2022-11-07T09:14:20.754Z,32
2022-11-07T09:15:24.807Z,25
2022-11-07T09:16:28.899Z,25
2022-11-07T09:17:33.010Z,33
2022-11-07T09:18:37.057Z,27
2022-11-07T09:19:41.004Z,27
2022-11-07T09:20:45.278Z,26
2022-11-07T09:21:49.815Z,29
2022-11-07T09:22:53.886Z,28
2022-11-07T09:23:57.901Z,27
2022-11-07T09:25:01.992Z,28
2022-11-07T09:26:06.509Z,37
2022-11-07T09:27:10.667Z,37
2022-11-07T09:28:14.640Z,37
2022-11-07T09:29:18.887Z,33
2022-11-07T09:30:23.385Z,37
2022-11-07T09:31:27.406Z,30
2022-11-07T09:32:44.224Z,33
2022-11-07T09:33:35.646Z,32
2022-11-07T09:34:40.346Z,29
2022-11-07T09:35:44.776Z,36
2022-11-07T09:36:49.197Z,30
2022-11-07T09:37:53.347Z,26
2022-11-07T09:38:57.531Z,29
2022-11-07T09:40:01.568Z,27
2022-11-07T09:41:06.139Z,28
2022-11-07T09:42:18.207Z,25
2022-11-07T09:43:27.412Z,25
2022-11-07T09:44:42.332Z,25
2022-11-07T09:45:54.504Z,29
2022-11-07T09:47:09.223Z,40
2022-11-07T09:48:13.320Z,39
2022-11-07T09:49:17.815Z,31
2022-11-07T09:50:27.479Z,40
2022-11-07T09:51:36.695Z,44
2022-11-07T09:52:40.743Z,32
2022-11-07T09:53:44.763Z,38
2022-11-07T09:54:48.899Z,32
2022-11-07T09:56:01.272Z,25
2022-11-07T09:57:06.621Z,35
2022-11-07T09:58:09.853Z,38
2022-11-07T09:59:20.489Z,28
2022-11-07T10:00:32.619Z,28
2022-11-07T10:01:36.878Z,43
2022-11-07T10:02:40.769Z,40
2022-11-07T10:04:51.912Z,34
2022-11-07T10:05:59.163Z,32
2022-11-07T10:07:06.299Z,41
2022-11-07T10:08:21.188Z,26
2022-11-07T10:09:30.205Z,29
2022-11-07T10:10:37.332Z,27
2022-11-07T10:11:52.247Z,28
2022-11-07T10:13:01.291Z,29
2022-11-07T10:14:16.030Z,32
2022-11-07T10:15:28.292Z,35
2022-11-07T10:16:37.875Z,25
2022-11-07T10:17:53.927Z,33
2022-11-07T10:19:04.919Z,29
2022-11-07T10:20:20.537Z,25
2022-11-07T10:21:37.404Z,25
2022-11-07T10:22:34.391Z,29
2022-11-07T10:23:43.983Z,36
2022-11-07T10:24:56.368Z,28
2022-11-07T10:26:05.905Z,29
2022-11-07T10:27:13.031Z,28
2022-11-07T10:28:17.175Z,38
2022-11-07T10:29:21.687Z,39
2022-11-07T10:30:25.704Z,25
2022-11-07T10:31:29.836Z,32
2022-11-07T10:32:33.923Z,25
2022-11-07T10:33:40.974Z,35
2022-11-07T10:34:54.297Z,25
2022-11-07T10:35:57.846Z,28
2022-11-07T10:37:02.394Z,25
2022-11-07T10:38:06.475Z,28
2022-11-07T10:39:16.196Z,25
2022-11-07T10:40:20.747Z,32
2022-11-07T10:41:24.746Z,26
2022-11-07T10:42:29.256Z,26
2022-11-07T10:43:33.683Z,27
2022-11-07T10:44:40.963Z,30
2022-11-07T10:45:45.111Z,26
2022-11-07T10:46:51.557Z,27
2022-11-07T10:47:53.756Z,32
2022-11-07T10:48:57.971Z,27
2022-11-07T10:50:02.518Z,26
2022-11-07T10:51:07.170Z,28
2022-11-07T10:52:11.562Z,34
2022-11-07T10:53:18.870Z,39
2022-11-07T10:54:23.235Z,25
2022-11-07T10:55:27.371Z,26
2022-11-07T10:56:31.492Z,25
2022-11-07T10:57:46.235Z,37
2022-11-07T10:58:50.743Z,41
2022-11-07T10:59:54.811Z,31
2022-11-07T11:00:59.042Z,28
2022-11-07T11:02:03.716Z,27
2022-11-07T11:03:15.902Z,30
2022-11-07T11:04:22.935Z,27
2022-11-07T11:05:27.565Z,25
2022-11-07T11:06:32.100Z,35
2022-11-07T11:07:36.684Z,26
2022-11-07T11:08:40.831Z,27
2022-11-07T11:09:45.252Z,39
2022-11-07T11:10:52.484Z,34
2022-11-07T11:11:57.052Z,30
2022-11-07T11:13:04.659Z,35
2022-11-07T11:14:08.704Z,30
2022-11-07T11:15:12.739Z,27
2022-11-07T11:16:16.866Z,36
2022-11-07T11:17:20.953Z,31
2022-11-07T11:18:25.055Z,25
2022-11-07T11:19:29.612Z,27
2022-11-07T11:20:41.776Z,38
2022-11-07T11:21:51.032Z,40
2022-11-07T11:22:55.485Z,36
2022-11-07T11:23:59.583Z,39
2022-11-07T11:25:04.245Z,49
2022-11-07T11:26:11.740Z,50
2022-11-07T11:27:26.147Z,37
2022-11-07T11:28:30.636Z,39
2022-11-07T11:29:39.975Z,40
2022-11-07T11:30:52.049Z,35
2022-11-07T11:31:59.642Z,30
2022-11-07T11:33:04.288Z,36
2022-11-07T11:34:13.960Z,37
2022-11-07T11:35:23.512Z,42
2022-11-07T11:36:35.657Z,44
2022-11-07T11:37:39.924Z,32
2022-11-07T11:38:44.008Z,36
2022-11-07T11:39:48.896Z,36
2022-11-07T11:41:03.519Z,45
2022-11-07T11:42:00.212Z,34
2022-11-07T11:43:04.897Z,38
2022-11-07T11:44:11.871Z,37
2022-11-07T11:45:19.026Z,39
2022-11-07T11:46:33.711Z,30
2022-11-07T11:47:37.872Z,41
2022-11-07T11:48:42.527Z,32
2022-11-07T11:49:54.696Z,41
2022-11-07T11:51:04.244Z,35
2022-11-07T11:52:08.548Z,26
2022-11-07T11:53:18.436Z,33
2022-11-07T11:54:22.337Z,36
2022-11-07T11:55:26.867Z,30
2022-11-07T11:56:31.292Z,35
2022-11-07T11:57:46.143Z,36
2022-11-07T11:59:01.061Z,42
2022-11-07T12:00:13.600Z,41
2022-11-07T12:01:20.716Z,44
2022-11-07T12:02:32.832Z,41
2022-11-07T12:03:47.465Z,30
2022-11-07T12:04:56.757Z,42
2022-11-07T12:06:11.482Z,39
2022-11-07T12:07:16.050Z,41
2022-11-07T12:08:25.611Z,50
2022-11-07T12:09:37.958Z,48
2022-11-07T12:10:44.954Z,50
2022-11-07T12:11:57.243Z,50
2022-11-07T12:13:04.404Z,59
2022-11-07T12:14:14.174Z,53
2022-11-07T12:15:29.117Z,47
2022-11-07T12:16:43.491Z,44
2022-11-07T12:17:55.707Z,50
2022-11-07T12:19:05.009Z,48
2022-11-07T12:20:14.645Z,44
2022-11-07T12:21:24.146Z,36
2022-11-07T12:22:34.519Z,42
2022-11-07T12:23:44.244Z,39
2022-11-07T12:24:48.730Z,44
2022-11-07T12:25:58.378Z,38
2022-11-07T12:27:03.033Z,35
2022-11-07T12:28:12.680Z,37
2022-11-07T12:29:27.298Z,32
2022-11-07T12:30:36.481Z,41
2022-11-07T12:31:48.554Z,37
2022-11-07T12:33:02.966Z,46
2022-11-07T12:34:12.624Z,39
2022-11-07T12:35:22.203Z,38
2022-11-07T12:36:28.871Z,41
2022-11-07T12:37:41.221Z,45
2022-11-07T12:38:48.666Z,45
2022-11-07T12:40:00.897Z,45
2022-11-07T12:41:07.518Z,47
2022-11-07T12:42:14.605Z,45
2022-11-07T12:43:23.825Z,47
2022-11-07T12:44:33.592Z,50
2022-11-07T12:45:40.701Z,48
2022-11-07T12:46:55.313Z,50
2022-11-07T12:47:59.420Z,43
2022-11-07T12:49:11.627Z,43
2022-11-07T12:50:19.048Z,51
2022-11-07T12:51:31.491Z,46
2022-11-07T12:52:41.237Z,43
2022-11-07T12:53:51.699Z,41
2022-11-07T12:55:06.433Z,42
2022-11-07T12:56:21.275Z,40
2022-11-07T12:57:25.887Z,43
2022-11-07T12:58:29.896Z,42
2022-11-07T12:59:34.103Z,44
2022-11-07T13:00:38.495Z,40
2022-11-07T13:01:42.841Z,41
2022-11-07T13:02:49.714Z,28
2022-11-07T13:04:11.507Z,31
2022-11-07T13:05:24.093Z,31
2022-11-07T13:06:38.602Z,32
2022-11-07T13:07:43.487Z,29
2022-11-07T13:08:47.843Z,25
2022-11-07T13:09:59.935Z,30
2022-11-07T13:11:09.796Z,31
2022-11-07T13:12:21.792Z,34
2022-11-07T13:13:32.947Z,27
2022-11-07T13:14:41.999Z,30
2022-11-07T13:16:09.331Z,29
2022-11-07T13:16:50.379Z,25
2022-11-07T13:18:03.175Z,32
2022-11-07T13:19:15.251Z,41
2022-11-07T13:20:24.827Z,38
2022-11-07T13:21:28.958Z,35
2022-11-07T13:22:32.959Z,32
2022-11-07T13:23:37.147Z,40
2022-11-07T13:24:41.602Z,39
2022-11-07T13:25:51.859Z,40
2022-11-07T13:27:01.590Z,38
2022-11-07T13:28:05.762Z,35
2022-11-07T13:29:15.342Z,36
2022-11-07T13:30:27.716Z,34
2022-11-07T13:31:32.119Z,45
2022-11-07T13:32:36.223Z,34
2022-11-07T13:33:40.274Z,41
2022-11-07T13:34:44.459Z,40
2022-11-07T13:35:56.559Z,31
2022-11-07T13:37:00.974Z,35
2022-11-07T13:38:08.661Z,37
2022-11-07T13:39:14.974Z,34
2022-11-07T13:40:19.019Z,41
2022-11-07T13:41:28.810Z,40
2022-11-07T13:42:33.211Z,51
2022-11-07T13:43:37.304Z,42
2022-11-07T13:44:49.430Z,33
2022-11-07T13:45:53.634Z,48
2022-11-07T13:46:57.710Z,46
2022-11-07T13:48:04.795Z,41
2022-11-07T13:49:14.450Z,40
2022-11-07T13:50:21.082Z,49
2022-11-07T13:51:25.215Z,45
2022-11-07T13:52:35.820Z,46
2022-11-07T13:53:39.848Z,44
2022-11-07T13:54:49.441Z,43
2022-11-07T13:55:53.454Z,45
2022-11-07T13:57:07.893Z,54
2022-11-07T13:58:19.929Z,54
2022-11-07T13:59:24.106Z,53
2022-11-07T14:00:39.024Z,58
2022-11-07T14:01:43.475Z,59
2022-11-07T14:02:47.509Z,54
2022-11-07T14:03:52.029Z,57
2022-11-07T14:05:15.101Z,60
2022-11-07T14:06:10.765Z,60
2022-11-07T14:07:14.901Z,55
2022-11-07T14:08:19.521Z,54
2022-11-07T14:09:23.933Z,61
2022-11-07T14:10:28.017Z,64
2022-11-07T14:11:42.335Z,65
2022-11-07T14:12:46.831Z,66
2022-11-07T14:13:51.458Z,67
2022-11-07T14:14:55.470Z,85
2022-11-07T14:15:59.630Z,77
2022-11-07T14:17:03.712Z,80
2022-11-07T14:18:08.333Z,80
2022-11-07T14:19:15.862Z,71
2022-11-07T14:20:25.977Z,80
2022-11-07T14:21:30.205Z,85
2022-11-07T14:22:34.867Z,86
2022-11-07T14:23:39.492Z,87
2022-11-07T14:24:44.062Z,94
2022-11-07T14:25:51.145Z,91
2022-11-07T14:27:03.706Z,93
2022-11-07T14:28:08.279Z,97
2022-11-07T14:29:15.734Z,98
2022-11-07T14:30:23.137Z,103
2022-11-07T14:31:27.046Z,100
2022-11-07T14:32:32.221Z,96
2022-11-07T14:33:35.867Z,103
2022-11-07T14:34:40.406Z,106
2022-11-07T14:35:44.402Z,105
2022-11-07T14:36:48.589Z,111
2022-11-07T14:37:55.674Z,120
2022-11-07T14:38:59.825Z,119
2022-11-07T14:40:04.358Z,119
2022-11-07T14:41:08.907Z,120
2022-11-07T14:42:13.440Z,116
2022-11-07T14:43:17.545Z,113
2022-11-07T14:44:25.139Z,113
2022-11-07T14:45:56.873Z,117
2022-11-07T14:46:34.345Z,119
2022-11-07T14:47:38.425Z,125
2022-11-07T14:48:42.881Z,118
2022-11-07T14:49:47.021Z,117
2022-11-07T14:50:51.184Z,115
2022-11-07T14:51:56.370Z,113
2022-11-07T14:53:00.977Z,120
2022-11-07T14:54:05.539Z,119
2022-11-07T14:55:12.666Z,120
2022-11-07T14:56:24.865Z,122
2022-11-07T14:57:29.328Z,117
2022-11-07T14:58:34.006Z,115
2022-11-07T14:59:38.401Z,128
2022-11-07T15:00:42.555Z,112
2022-11-07T15:01:52.215Z,116
2022-11-07T15:02:56.457Z,129
2022-11-07T15:04:00.396Z,120
2022-11-07T15:05:11.382Z,116
2022-11-07T15:06:24.251Z,119
2022-11-07T15:07:31.593Z,119
2022-11-07T15:08:35.881Z,122
2022-11-07T15:09:40.156Z,125
2022-11-07T15:10:44.613Z,111
2022-11-07T15:11:48.754Z,116
2022-11-07T15:12:53.310Z,107
2022-11-07T15:14:00.481Z,118
2022-11-07T15:15:04.530Z,121
2022-11-07T15:16:19.308Z,123
2022-11-07T15:17:23.493Z,120
2022-11-07T15:18:28.075Z,115
2022-11-07T15:19:32.537Z,113
2022-11-07T15:20:37.120Z,120
2022-11-07T15:21:41.577Z,129
2022-11-07T15:22:50.884Z,130
2022-11-07T15:23:55.373Z,124
2022-11-07T15:24:59.477Z,134
2022-11-07T15:26:03.451Z,133
2022-11-07T15:27:07.501Z,129
2022-11-07T15:28:15.033Z,127
2022-11-07T15:29:18.746Z,126
2022-11-07T15:30:22.807Z,132
2022-11-07T15:31:29.837Z,132
2022-11-07T15:32:33.973Z,133